Time;durP1;ratioP1;P1;durP2;ratioP2;P2;SDS_P1;SDS_P2;PMS_P1;PMS_P2;Temp;Humidity;BMP_temperature;BMP_pressure;BME280_temperature;BME280_humidity;BME280_pressure;Samples;Min_cycle;Max_cycle;Signal;HPM_P1;HPM_P2
2023/08/28 00:00:02;;;;;;;5.00;3.15;;;12.20;97.90;;;;;;4957454;28;20050;-71
2023/08/28 00:02:29;;;;;;;4.28;3.40;;;12.20;97.80;;;;;;4956171;28;20074;-71
2023/08/28 00:04:55;;;;;;;7.35;3.40;;;12.10;97.90;;;;;;4944393;28;20134;-71
2023/08/28 00:07:22;;;;;;;7.53;3.40;;;12.10;98.30;;;;;;4945027;28;20892;-71
2023/08/28 00:09:49;;;;;;;6.97;3.85;;;12.10;98.20;;;;;;4956584;28;20129;-71
2023/08/28 00:12:16;;;;;;;4.15;3.28;;;12.00;98.40;;;;;;4944009;28;20491;-71
2023/08/28 00:14:43;;;;;;;7.68;3.50;;;12.00;98.50;;;;;;4957227;28;20069;-70
2023/08/28 00:17:10;;;;;;;10.43;3.65;;;11.90;98.70;;;;;;4968669;28;20133;-71
2023/08/28 00:19:37;;;;;;;4.95;3.58;;;12.00;98.60;;;;;;4962907;28;20138;-75
2023/08/28 00:22:04;;;;;;;8.15;3.45;;;11.90;98.40;;;;;;4947594;28;20093;-75
2023/08/28 00:24:31;;;;;;;5.32;3.10;;;11.90;98.80;;;;;;4948085;28;20149;-75
2023/08/28 00:26:57;;;;;;;6.70;3.72;;;11.90;98.80;;;;;;4940059;28;20059;-75
2023/08/28 00:29:24;;;;;;;9.43;3.45;;;11.80;98.90;;;;;;4950180;28;20055;-75
2023/08/28 00:31:51;;;;;;;7.78;3.80;;;11.80;99.00;;;;;;4963157;28;20050;-75
2023/08/28 00:34:18;;;;;;;5.57;3.28;;;11.70;99.30;;;;;;4965199;28;20070;-71
2023/08/28 00:36:45;;;;;;;6.30;3.72;;;11.70;99.40;;;;;;4965477;28;20050;-71
2023/08/28 00:39:12;;;;;;;9.05;3.80;;;11.60;99.60;;;;;;4963322;28;20055;-71
2023/08/28 00:41:39;;;;;;;5.50;3.47;;;11.60;99.60;;;;;;4960055;28;20744;-71
2023/08/28 00:44:06;;;;;;;9.80;4.22;;;11.60;99.90;;;;;;4957157;28;20114;-71
2023/08/28 00:46:33;;;;;;;5.75;3.75;;;11.60;100.00;;;;;;4958540;28;20133;-71
2023/08/28 00:49:00;;;;;;;6.10;3.72;;;11.60;100.00;;;;;;4957788;28;20047;-71
2023/08/28 00:51:28;;;;;;;8.32;4.10;;;11.60;100.00;;;;;;4957542;28;20167;-71
2023/08/28 00:53:55;;;;;;;5.97;4.07;;;11.60;100.00;;;;;;4960376;28;20484;-71
2023/08/28 00:56:22;;;;;;;8.73;4.47;;;11.60;100.00;;;;;;4942756;28;20102;-71
2023/08/28 00:58:49;;;;;;;8.95;4.53;;;11.50;100.00;;;;;;4956773;28;20051;-71
2023/08/28 01:01:16;;;;;;;8.90;4.70;;;11.50;100.00;;;;;;4957943;28;20066;-71
2023/08/28 01:03:43;;;;;;;8.10;4.25;;;11.60;100.00;;;;;;4977644;23;20084;-71
2023/08/28 01:06:32;;;;;;;11.32;4.78;;;11.60;100.00;;;;;;4963325;28;20134;-71
2023/08/28 01:09:13;;;;;;;12.00;4.28;;;11.50;100.00;;;;;;4967021;28;20050;-71
2023/08/28 01:11:40;;;;;;;11.02;5.28;;;11.50;100.00;;;;;;4977769;28;20168;-71
2023/08/28 01:14:25;;;;;;;10.98;4.95;;;11.50;100.00;;;;;;4962949;28;20876;-71
2023/08/28 01:16:56;;;;;;;6.68;4.25;;;11.40;100.00;;;;;;4984047;23;20062;-71
2023/08/28 01:19:36;;;;;;;11.93;5.53;;;11.40;100.00;;;;;;4963920;28;20437;-71
2023/08/28 01:22:18;;;;;;;7.43;4.93;;;11.40;100.00;;;;;;4956801;28;20055;-71
2023/08/28 01:24:49;;;;;;;9.57;4.97;;;11.30;100.00;;;;;;4947693;28;20125;-71
2023/08/28 01:27:18;;;;;;;11.27;5.18;;;11.30;100.00;;;;;;4944198;28;20098;-71
2023/08/28 01:29:45;;;;;;;11.82;5.07;;;11.20;100.00;;;;;;4957437;28;20047;-71
2023/08/28 01:32:12;;;;;;;11.60;5.28;;;11.20;100.00;;;;;;4942076;28;20057;-76
2023/08/28 01:34:40;;;;;;;10.43;5.28;;;11.20;100.00;;;;;;4948826;28;20066;-71
2023/08/28 01:37:17;;;;;;;11.55;5.47;;;11.10;100.00;;;;;;4951825;28;20070;-76
2023/08/28 01:39:48;;;;;;;7.50;4.80;;;11.10;100.00;;;;;;4964655;28;20047;-76
2023/08/28 01:42:19;;;;;;;9.32;5.00;;;11.10;100.00;;;;;;4972088;28;20409;-76
2023/08/28 01:44:54;;;;;;;10.10;5.70;;;11.10;100.00;;;;;;4960400;28;20063;-70
2023/08/28 01:47:23;;;;;;;12.98;5.50;;;11.10;100.00;;;;;;4946545;28;20047;-71
2023/08/28 01:49:53;;;;;;;9.35;5.65;;;11.10;100.00;;;;;;4963819;28;20043;-71
2023/08/28 01:52:23;;;;;;;9.70;5.50;;;11.10;100.00;;;;;;4965553;28;20058;-75
2023/08/28 01:54:56;;;;;;;13.82;6.15;;;11.10;100.00;;;;;;4949626;28;20051;-75
2023/08/28 01:57:25;;;;;;;15.23;6.20;;;11.20;100.00;;;;;;4947825;28;20042;-75
2023/08/28 01:59:56;;;;;;;12.75;5.82;;;11.10;100.00;;;;;;4952027;28;20051;-75
2023/08/28 02:02:23;;;;;;;12.10;6.30;;;11.10;100.00;;;;;;4945752;28;20063;-75
2023/08/28 02:04:51;;;;;;;13.95;6.28;;;11.10;100.00;;;;;;4965091;28;20126;-75
2023/08/28 02:07:19;;;;;;;14.38;6.28;;;11.20;100.00;;;;;;4970978;28;20415;-75
2023/08/28 02:09:47;;;;;;;10.77;6.20;;;11.20;100.00;;;;;;4962909;28;20043;-75
2023/08/28 02:12:14;;;;;;;13.77;6.78;;;11.20;100.00;;;;;;4951598;28;20051;-75
2023/08/28 02:17:30;;;;;;;11.50;6.80;;;11.20;100.00;;;;;;4924952;29;20118;-75
2023/08/28 02:19:58;;;;;;;12.75;6.80;;;11.20;100.00;;;;;;4929957;29;20063;-76
2023/08/28 02:22:25;;;;;;;11.40;6.57;;;11.20;100.00;;;;;;4931982;29;20107;-75
2023/08/28 02:24:52;;;;;;;14.32;6.90;;;11.20;100.00;;;;;;4938995;29;20599;-75
2023/08/28 02:28:03;;;;;;;11.23;6.47;;;11.20;100.00;;;;;;4933480;29;20083;-75
2023/08/28 02:30:45;;;;;;;16.50;6.45;;;11.10;100.00;;;;;;4901178;29;20067;-71
2023/08/28 02:33:13;;;;;;;12.73;7.15;;;11.10;100.00;;;;;;4925070;29;20059;-70
2023/08/28 02:35:40;;;;;;;12.75;6.80;;;11.00;100.00;;;;;;4919158;29;20508;-70
2023/08/28 02:38:08;;;;;;;20.17;7.25;;;11.00;100.00;;;;;;4931081;29;20052;-75
2023/08/28 02:40:38;;;;;;;12.48;6.85;;;11.00;100.00;;;;;;4936737;29;20095;-74
2023/08/28 02:43:06;;;;;;;11.15;6.50;;;11.00;100.00;;;;;;4928909;29;20058;-75
2023/08/28 02:45:35;;;;;;;14.82;6.75;;;11.00;100.00;;;;;;4930283;29;20055;-70
2023/08/28 02:48:05;;;;;;;15.38;7.18;;;11.00;100.00;;;;;;4928924;29;20055;-76
2023/08/28 02:50:35;;;;;;;11.60;6.90;;;10.90;100.00;;;;;;4924975;29;20114;-70
2023/08/28 02:53:03;;;;;;;12.13;6.85;;;10.90;100.00;;;;;;4926043;29;20056;-70
2023/08/28 02:55:39;;;;;;;12.18;7.03;;;10.90;100.00;;;;;;4920675;29;20122;-71
2023/08/28 02:58:07;;;;;;;11.20;6.82;;;10.90;100.00;;;;;;4922480;29;20788;-70
2023/08/28 03:00:41;;;;;;;15.32;7.25;;;10.90;100.00;;;;;;4920344;29;20079;-70
2023/08/28 03:03:09;;;;;;;13.00;6.55;;;10.90;100.00;;;;;;4926761;29;20102;-70
2023/08/28 03:05:36;;;;;;;11.18;6.50;;;10.80;100.00;;;;;;4927485;29;20055;-75
2023/08/28 03:08:07;;;;;;;15.02;6.35;;;10.80;100.00;;;;;;4928379;29;20063;-75
2023/08/28 03:10:37;;;;;;;10.95;6.63;;;10.80;100.00;;;;;;4928954;29;20071;-75
2023/08/28 03:13:05;;;;;;;14.18;6.18;;;10.80;100.00;;;;;;4928323;29;20446;-76
2023/08/28 03:15:33;;;;;;;11.48;6.57;;;10.80;100.00;;;;;;4927879;29;20055;-76
2023/08/28 03:18:00;;;;;;;17.83;6.70;;;10.80;100.00;;;;;;4929924;29;20162;-76
2023/08/28 03:20:28;;;;;;;12.88;6.97;;;10.80;100.00;;;;;;4928758;29;20051;-75
2023/08/28 03:22:56;;;;;;;15.13;6.80;;;10.80;100.00;;;;;;4929093;29;20055;-75
2023/08/28 03:25:24;;;;;;;13.50;6.93;;;10.80;100.00;;;;;;4925706;29;20071;-75
2023/08/28 03:27:55;;;;;;;21.50;7.40;;;10.80;100.00;;;;;;4932330;29;20057;-76
2023/08/28 03:30:41;;;;;;;16.20;6.43;;;10.80;100.00;;;;;;4929643;29;20071;-76
2023/08/28 03:33:11;;;;;;;9.45;6.40;;;10.80;100.00;;;;;;4922025;29;20055;-75
2023/08/28 03:35:41;;;;;;;18.23;7.50;;;10.80;100.00;;;;;;4929246;29;20054;-75
2023/08/28 03:38:11;;;;;;;13.20;6.45;;;10.80;100.00;;;;;;4933413;29;20584;-75
2023/08/28 03:40:44;;;;;;;13.88;6.60;;;10.80;100.00;;;;;;4942883;29;20378;-76
2023/08/28 03:43:13;;;;;;;17.15;8.30;;;10.70;100.00;;;;;;4924777;29;20055;-75
2023/08/28 03:45:40;;;;;;;14.05;7.28;;;10.70;100.00;;;;;;4925874;29;20055;-70
2023/08/28 03:48:07;;;;;;;17.08;7.72;;;10.70;100.00;;;;;;4924307;29;20103;-71
2023/08/28 03:50:36;;;;;;;13.77;7.45;;;10.70;100.00;;;;;;4927787;29;20052;-71
2023/08/28 03:53:03;;;;;;;14.52;7.45;;;10.70;100.00;;;;;;4924308;29;20079;-70
2023/08/28 03:55:31;;;;;;;14.25;6.85;;;10.70;100.00;;;;;;4922367;29;20051;-70
2023/08/28 03:58:02;;;;;;;12.40;6.75;;;10.70;100.00;;;;;;4920911;29;20058;-70
2023/08/28 04:00:31;;;;;;;13.52;6.43;;;10.70;100.00;;;;;;4922851;29;20127;-70
2023/08/28 04:02:58;;;;;;;16.02;7.07;;;10.70;100.00;;;;;;4925418;29;20135;-70
2023/08/28 04:05:26;;;;;;;13.60;6.88;;;10.70;100.00;;;;;;4921624;29;20677;-70
2023/08/28 04:07:53;;;;;;;13.05;7.57;;;10.70;100.00;;;;;;4944436;28;20149;-70
2023/08/28 04:10:20;;;;;;;17.50;8.27;;;10.70;100.00;;;;;;4925022;29;20047;-75
2023/08/28 04:12:47;;;;;;;11.30;6.50;;;10.70;100.00;;;;;;4928534;29;20140;-76
2023/08/28 04:15:17;;;;;;;12.70;7.18;;;10.70;100.00;;;;;;4929017;29;20135;-76
2023/08/28 04:17:44;;;;;;;20.63;6.93;;;10.70;100.00;;;;;;4918047;29;20161;-76
2023/08/28 04:20:14;;;;;;;14.93;6.97;;;10.70;100.00;;;;;;4924915;29;20094;-75
2023/08/28 04:22:44;;;;;;;15.13;7.38;;;10.70;100.00;;;;;;4923136;29;20134;-71
2023/08/28 04:25:12;;;;;;;12.90;7.13;;;10.80;100.00;;;;;;4926309;29;20055;-78
2023/08/28 04:27:40;;;;;;;17.98;7.63;;;10.80;100.00;;;;;;4923235;29;20609;-74
2023/08/28 04:30:08;;;;;;;14.68;7.60;;;10.80;100.00;;;;;;4919790;29;20059;-73
2023/08/28 04:32:36;;;;;;;14.80;7.38;;;10.90;100.00;;;;;;4924315;29;20556;-75
2023/08/28 04:35:03;;;;;;;12.57;7.10;;;11.00;100.00;;;;;;4918242;29;20047;-75
2023/08/28 04:37:30;;;;;;;13.40;7.35;;;11.10;100.00;;;;;;4926080;29;20051;-72
2023/08/28 04:39:57;;;;;;;16.40;8.10;;;11.20;100.00;;;;;;4926026;29;20099;-72
2023/08/28 04:42:26;;;;;;;18.08;8.85;;;11.30;100.00;;;;;;4938661;28;20074;-71
2023/08/28 04:44:52;;;;;;;16.92;8.38;;;11.40;100.00;;;;;;4924601;29;20055;-71
2023/08/28 04:47:21;;;;;;;22.08;9.52;;;11.50;100.00;;;;;;4934079;29;20484;-76
2023/08/28 04:49:48;;;;;;;22.20;9.65;;;11.60;100.00;;;;;;4924873;29;20048;-74
2023/08/28 04:52:15;;;;;;;19.10;8.90;;;11.70;100.00;;;;;;4922687;29;20512;-72
2023/08/28 04:54:41;;;;;;;18.55;10.07;;;11.70;100.00;;;;;;4933776;29;20094;-71
2023/08/28 04:57:08;;;;;;;12.98;8.20;;;11.80;100.00;;;;;;4922092;29;20775;-70
2023/08/28 04:59:35;;;;;;;21.08;8.80;;;11.90;100.00;;;;;;4923927;29;20634;-71
2023/08/28 05:02:02;;;;;;;15.57;8.57;;;11.90;100.00;;;;;;4924594;29;20127;-70
2023/08/28 05:04:29;;;;;;;18.50;9.02;;;11.90;100.00;;;;;;4918694;29;20104;-70
2023/08/28 05:06:56;;;;;;;15.07;8.70;;;12.00;100.00;;;;;;4922042;29;20246;-70
2023/08/28 05:09:23;;;;;;;14.65;8.05;;;12.10;100.00;;;;;;4935269;29;20075;-71
2023/08/28 05:11:50;;;;;;;16.45;7.97;;;12.10;100.00;;;;;;4943722;28;20051;-70
2023/08/28 05:14:17;;;;;;;14.63;7.85;;;12.20;100.00;;;;;;4938185;29;20085;-70
2023/08/28 05:16:45;;;;;;;19.45;8.38;;;12.20;100.00;;;;;;4930618;28;20074;-71
2023/08/28 05:19:11;;;;;;;17.75;8.05;;;12.20;100.00;;;;;;4929805;29;20077;-70
2023/08/28 05:21:38;;;;;;;12.68;8.23;;;12.20;100.00;;;;;;4913740;29;20175;-72
2023/08/28 05:24:06;;;;;;;16.85;8.50;;;12.30;100.00;;;;;;4921381;29;20071;-72
2023/08/28 05:26:33;;;;;;;13.10;7.28;;;12.30;100.00;;;;;;4929110;29;20051;-76
2023/08/28 05:29:00;;;;;;;22.15;8.60;;;12.30;100.00;;;;;;4925249;29;20044;-75
2023/08/28 05:31:27;;;;;;;15.43;8.18;;;12.40;100.00;;;;;;4926197;29;20127;-76
2023/08/28 05:33:54;;;;;;;17.90;8.70;;;12.40;99.90;;;;;;4921540;29;20055;-76
2023/08/28 05:36:21;;;;;;;12.25;8.02;;;12.40;99.50;;;;;;4930671;29;20212;-76
2023/08/28 05:38:48;;;;;;;15.32;8.25;;;12.40;99.80;;;;;;4939671;29;20076;-76
2023/08/28 05:41:14;;;;;;;21.42;9.07;;;12.40;99.40;;;;;;4937286;29;20052;-76
2023/08/28 05:43:41;;;;;;;13.35;8.60;;;12.50;99.50;;;;;;4934463;29;20051;-76
2023/08/28 05:46:08;;;;;;;19.95;7.85;;;12.50;99.10;;;;;;4942537;29;20067;-75
2023/08/28 05:48:35;;;;;;;29.88;8.88;;;12.60;99.90;;;;;;4926286;29;20386;-77
2023/08/28 05:51:03;;;;;;;12.60;7.63;;;12.60;100.00;;;;;;4933464;29;20051;-76
2023/08/28 05:53:29;;;;;;;12.75;8.48;;;12.70;99.90;;;;;;4922667;29;20055;-76
2023/08/28 05:55:56;;;;;;;16.33;8.00;;;12.80;99.80;;;;;;4928559;29;20048;-75
2023/08/28 05:58:23;;;;;;;15.93;7.65;;;12.90;99.50;;;;;;4933286;29;20051;-76
2023/08/28 06:00:50;;;;;;;13.95;8.27;;;13.00;99.30;;;;;;4923615;29;20115;-76
2023/08/28 06:03:17;;;;;;;19.42;8.18;;;13.00;98.90;;;;;;4925181;29;20066;-76
2023/08/28 06:05:44;;;;;;;11.10;7.18;;;13.10;98.70;;;;;;4921529;29;20051;-76
2023/08/28 06:08:11;;;;;;;13.50;7.70;;;13.20;98.60;;;;;;4928053;29;20048;-76
2023/08/28 06:10:38;;;;;;;14.30;7.80;;;13.20;98.50;;;;;;4928174;29;20126;-76
2023/08/28 06:13:06;;;;;;;12.85;7.32;;;13.20;97.80;;;;;;4939115;29;20047;-76
2023/08/28 06:15:33;;;;;;;15.40;8.15;;;13.20;98.20;;;;;;4940629;29;20832;-76
2023/08/28 06:18:00;;;;;;;11.80;7.97;;;13.20;97.50;;;;;;4923220;29;20083;-76
2023/08/28 06:20:26;;;;;;;17.95;7.47;;;13.20;98.30;;;;;;4921979;29;20071;-76
2023/08/28 06:22:53;;;;;;;22.85;7.85;;;13.20;97.90;;;;;;4928893;29;20676;-76
2023/08/28 06:25:20;;;;;;;13.40;7.22;;;13.30;98.10;;;;;;4928979;29;20130;-76
2023/08/28 06:27:47;;;;;;;12.30;7.78;;;13.30;97.70;;;;;;4921988;29;20150;-76
2023/08/28 06:30:14;;;;;;;13.35;8.02;;;13.30;97.10;;;;;;4925909;29;20063;-76
2023/08/28 06:32:41;;;;;;;16.35;7.40;;;13.40;98.10;;;;;;4929099;29;20143;-76
2023/08/28 06:35:08;;;;;;;16.48;7.53;;;13.40;97.60;;;;;;4922201;29;20054;-76
2023/08/28 06:37:35;;;;;;;13.15;7.25;;;13.50;97.30;;;;;;4929283;29;20079;-76
2023/08/28 06:40:03;;;;;;;15.80;7.85;;;13.50;97.60;;;;;;4927997;29;20123;-76
2023/08/28 06:42:30;;;;;;;14.65;7.65;;;13.60;97.70;;;;;;4928687;29;20142;-76
2023/08/28 06:44:57;;;;;;;13.80;7.47;;;13.60;96.60;;;;;;4923935;29;20721;-76
2023/08/28 06:47:27;;;;;;;13.40;7.30;;;13.70;96.90;;;;;;4925699;29;20123;-76
2023/08/28 06:49:54;;;;;;;11.10;6.88;;;13.80;97.00;;;;;;4945602;29;20054;-76
2023/08/28 06:52:20;;;;;;;12.75;7.57;;;13.80;96.40;;;;;;4940159;29;20078;-76
2023/08/28 06:54:47;;;;;;;13.93;7.82;;;13.90;96.40;;;;;;4920680;29;20083;-76
2023/08/28 06:57:18;;;;;;;16.35;6.65;;;13.90;95.70;;;;;;4931204;29;20059;-77
2023/08/28 06:59:45;;;;;;;12.55;7.18;;;14.00;96.30;;;;;;4924428;29;20047;-77
2023/08/28 07:02:12;;;;;;;14.63;7.18;;;14.00;95.60;;;;;;4927454;29;20051;-76
2023/08/28 07:08:15;;;;;;;14.57;7.32;;;14.10;95.80;;;;;;5050995;23;20054;-76
2023/08/28 07:10:42;;;;;;;16.17;7.03;;;14.10;95.70;;;;;;5005524;28;20140;-76
2023/08/28 07:13:09;;;;;;;16.60;6.07;;;14.20;96.00;;;;;;4998585;28;20049;-76
2023/08/28 07:15:36;;;;;;;18.27;7.55;;;14.20;96.00;;;;;;5005598;28;20050;-76
2023/08/28 07:18:03;;;;;;;10.65;6.00;;;14.30;95.80;;;;;;5005620;28;20050;-76
2023/08/28 07:20:30;;;;;;;10.60;6.43;;;14.30;95.20;;;;;;4986675;28;20057;-76
2023/08/28 07:22:57;;;;;;;11.00;6.35;;;14.40;95.40;;;;;;5006315;28;20053;-76
2023/08/28 07:25:24;;;;;;;10.90;6.28;;;14.40;95.10;;;;;;4995684;28;20081;-76
2023/08/28 07:27:52;;;;;;;13.73;6.80;;;14.50;95.40;;;;;;4993393;28;20683;-76
2023/08/28 07:30:19;;;;;;;16.33;7.05;;;14.50;94.80;;;;;;5001782;28;20132;-76
2023/08/28 07:32:46;;;;;;;12.95;6.25;;;14.50;95.00;;;;;;5000566;28;20045;-76
2023/08/28 07:35:13;;;;;;;12.73;6.78;;;14.60;95.20;;;;;;4988145;28;20153;-76
2023/08/28 07:37:40;;;;;;;15.40;6.65;;;14.60;94.60;;;;;;4988589;28;20446;-76
2023/08/28 07:40:08;;;;;;;15.52;7.10;;;14.60;93.70;;;;;;5004161;28;20062;-76
2023/08/28 07:42:35;;;;;;;15.55;6.78;;;14.70;95.00;;;;;;4988030;28;20061;-76
2023/08/28 07:45:03;;;;;;;15.98;7.75;;;14.90;94.90;;;;;;5004441;28;20060;-76
2023/08/28 07:47:30;;;;;;;16.58;6.60;;;15.10;93.50;;;;;;5006394;28;20050;-76
2023/08/28 07:49:57;;;;;;;8.93;5.85;;;15.20;92.80;;;;;;5007300;28;20045;-76
2023/08/28 07:52:24;;;;;;;9.65;6.28;;;15.20;92.50;;;;;;5005265;28;20162;-76
2023/08/28 07:54:51;;;;;;;9.73;5.68;;;15.30;92.60;;;;;;5003287;28;20050;-76
2023/08/28 07:57:23;;;;;;;9.48;5.70;;;15.30;92.20;;;;;;4988099;28;20081;-76
2023/08/28 07:59:49;;;;;;;11.73;5.70;;;15.40;92.50;;;;;;4987058;28;20056;-76
2023/08/28 08:02:16;;;;;;;8.95;5.13;;;15.40;91.90;;;;;;4986526;28;20053;-76
2023/08/28 08:04:43;;;;;;;12.18;5.50;;;15.50;91.70;;;;;;5002812;28;20050;-76
2023/08/28 08:07:10;;;;;;;8.60;5.15;;;15.60;91.20;;;;;;5003615;28;20149;-76
2023/08/28 08:09:37;;;;;;;7.53;5.45;;;15.60;90.60;;;;;;4996319;28;20053;-77
2023/08/28 08:12:04;;;;;;;9.30;4.80;;;15.60;90.40;;;;;;5008962;28;20450;-76
2023/08/28 08:14:31;;;;;;;10.80;6.03;;;15.60;90.60;;;;;;4986651;28;20060;-76
2023/08/28 08:16:58;;;;;;;14.70;5.00;;;15.60;90.30;;;;;;4995691;28;20116;-76
2023/08/28 08:19:25;;;;;;;8.32;4.90;;;15.60;90.40;;;;;;5019094;28;20053;-77
2023/08/28 08:21:52;;;;;;;6.75;4.55;;;15.60;90.40;;;;;;5011885;28;20085;-77
2023/08/28 08:24:19;;;;;;;8.98;5.32;;;15.60;89.60;;;;;;5002696;28;20502;-76
2023/08/28 08:26:46;;;;;;;6.65;4.13;;;15.60;90.40;;;;;;5004849;28;20414;-76
2023/08/28 08:29:13;;;;;;;8.23;4.68;;;15.50;90.20;;;;;;5000871;28;20669;-76
2023/08/28 08:31:39;;;;;;;27.00;7.30;;;15.50;90.10;;;;;;5010908;28;20148;-77
2023/08/28 08:34:07;;;;;;;10.38;4.70;;;15.60;90.60;;;;;;5004842;28;20458;-77
2023/08/28 08:36:34;;;;;;;5.85;4.07;;;15.50;89.90;;;;;;5002809;28;20074;-77
2023/08/28 08:39:01;;;;;;;13.20;5.40;;;15.50;90.10;;;;;;5012530;28;20073;-77
2023/08/28 08:41:27;;;;;;;10.10;4.20;;;15.40;93.30;;;;;;4992158;28;20143;-76
2023/08/28 08:43:54;;;;;;;6.68;4.35;;;15.30;93.80;;;;;;5003659;28;20817;-76
2023/08/28 08:46:21;;;;;;;8.07;5.10;;;15.30;93.90;;;;;;4987674;28;20112;-76
2023/08/28 08:48:51;;;;;;;9.38;5.07;;;15.20;94.70;;;;;;5009118;28;20053;-76
2023/08/28 08:51:23;;;;;;;12.32;5.80;;;15.10;95.40;;;;;;5011915;28;20440;-76
2023/08/28 08:53:59;;;;;;;11.75;5.60;;;15.10;96.20;;;;;;5005757;28;20041;-76
2023/08/28 08:56:31;;;;;;;11.07;5.95;;;15.10;95.70;;;;;;4990428;28;20164;-77
2023/08/28 08:58:59;;;;;;;10.27;6.03;;;15.10;97.00;;;;;;4990529;28;20090;-76
2023/08/28 09:01:28;;;;;;;13.18;6.20;;;15.10;98.40;;;;;;5000317;28;20136;-76
2023/08/28 09:03:58;;;;;;;8.93;6.25;;;15.10;97.80;;;;;;5004933;28;20133;-76
2023/08/28 09:06:29;;;;;;;13.63;7.53;;;15.40;100.00;;;;;;4989562;28;20160;-76
2023/08/28 09:08:56;;;;;;;11.73;6.35;;;15.90;98.40;;;;;;5011811;28;20152;-76
2023/08/28 09:11:26;;;;;;;9.70;6.13;;;16.20;96.30;;;;;;4986711;28;20598;-76
2023/08/28 09:13:53;;;;;;;9.80;5.68;;;16.40;93.20;;;;;;5007800;28;20070;-76
2023/08/28 09:16:20;;;;;;;9.90;5.47;;;16.40;92.90;;;;;;5005137;28;20165;-77
2023/08/28 09:18:47;;;;;;;10.60;6.10;;;16.50;92.60;;;;;;5008696;28;20057;-76
2023/08/28 09:21:14;;;;;;;11.70;5.22;;;16.50;93.20;;;;;;5007773;28;20119;-77
2023/08/28 09:23:44;;;;;;;8.40;5.60;;;16.60;93.00;;;;;;5012834;28;20406;-77
2023/08/28 09:26:22;;;;;;;7.35;5.07;;;16.70;92.20;;;;;;5000062;28;20053;-77
2023/08/28 09:28:59;;;;;;;10.38;4.82;;;16.70;90.70;;;;;;4999453;28;20045;-77
2023/08/28 09:31:32;;;;;;;14.50;5.63;;;16.60;91.10;;;;;;5005152;28;20042;-77
2023/08/28 09:34:00;;;;;;;10.95;6.15;;;16.60;92.20;;;;;;4996550;28;20054;-77
2023/08/28 09:36:40;;;;;;;10.55;5.40;;;16.70;91.20;;;;;;5005781;28;20056;-77
2023/08/28 09:39:12;;;;;;;12.70;5.60;;;16.70;89.90;;;;;;4998748;28;20054;-77
2023/08/28 09:41:39;;;;;;;9.45;5.18;;;16.60;89.40;;;;;;5005887;28;20133;-76
2023/08/28 09:44:05;;;;;;;11.07;5.13;;;16.70;89.20;;;;;;5006809;28;20084;-76
2023/08/28 09:46:35;;;;;;;8.25;5.13;;;16.70;89.40;;;;;;5006796;28;20054;-77
2023/08/28 09:49:03;;;;;;;9.45;6.35;;;16.80;90.80;;;;;;4983746;28;20061;-76
2023/08/28 09:51:48;;;;;;;8.13;5.43;;;17.10;90.00;;;;;;4988938;28;20582;-77
2023/08/28 09:54:16;;;;;;;13.07;4.80;;;17.40;88.20;;;;;;5007727;28;20049;-77
2023/08/28 09:56:43;;;;;;;7.00;4.93;;;17.80;87.40;;;;;;4989667;28;20297;-77
2023/08/28 09:59:12;;;;;;;9.63;4.15;;;18.80;88.10;;;;;;5005690;28;20058;-77
2023/08/28 10:01:39;;;;;;;7.47;4.10;;;20.00;82.70;;;;;;5007188;28;20657;-77
2023/08/28 10:04:15;;;;;;;5.07;3.60;;;20.60;79.20;;;;;;4990216;28;20631;-77
2023/08/28 10:06:53;;;;;;;5.35;3.45;;;20.60;76.70;;;;;;5004990;28;20149;-77
2023/08/28 10:09:22;;;;;;;5.88;2.88;;;20.80;77.50;;;;;;5003662;28;20060;-77
2023/08/28 10:11:50;;;;;;;4.05;2.92;;;21.60;74.90;;;;;;5015693;28;20054;-77
2023/08/28 10:14:20;;;;;;;3.42;2.20;;;22.20;73.30;;;;;;5007447;28;20046;-78
2023/08/28 10:16:49;;;;;;;4.47;2.25;;;22.50;69.90;;;;;;5007804;28;20124;-77
2023/08/28 10:19:25;;;;;;;3.72;1.85;;;22.60;69.60;;;;;;5005411;28;20462;-77
2023/08/28 10:21:53;;;;;;;4.93;2.05;;;22.10;69.00;;;;;;4987539;28;20053;-77
2023/08/28 10:24:21;;;;;;;7.15;1.80;;;22.60;69.20;;;;;;4998428;28;20085;-77
2023/08/28 10:26:50;;;;;;;10.70;2.40;;;22.90;71.40;;;;;;5009177;28;20104;-72
2023/08/28 10:29:18;;;;;;;3.78;1.60;;;23.50;65.50;;;;;;5001666;28;20141;-72
2023/08/28 10:31:46;;;;;;;4.80;1.58;;;23.60;66.80;;;;;;5001583;28;20054;-73
2023/08/28 10:34:15;;;;;;;2.55;1.58;;;23.20;65.80;;;;;;4989560;28;20085;-72
2023/08/28 10:36:45;;;;;;;10.38;1.52;;;23.70;66.90;;;;;;5004848;28;20511;-72
2023/08/28 10:39:17;;;;;;;6.00;2.40;;;23.90;62.60;;;;;;4982397;28;20078;-72
2023/08/28 10:41:47;;;;;;;6.10;1.38;;;24.00;61.80;;;;;;4988427;28;20060;-72
2023/08/28 10:44:18;;;;;;;5.28;1.40;;;23.80;64.30;;;;;;4987832;28;20068;-72
2023/08/28 10:46:47;;;;;;;5.10;1.70;;;24.10;62.70;;;;;;4996940;28;20620;-72
2023/08/28 10:52:47;;;;;;;5.70;1.50;;;24.20;62.80;;;;;;5023270;23;20057;-76
2023/08/28 10:55:18;;;;;;;2.47;1.00;;;24.60;62.30;;;;;;4960433;28;20161;-77
2023/08/28 10:57:52;;;;;;;2.78;1.30;;;24.90;61.70;;;;;;4958754;28;20127;-77
2023/08/28 11:00:20;;;;;;;1.52;1.00;;;24.90;59.10;;;;;;4960101;28;20508;-76
2023/08/28 11:03:14;;;;;;;1.48;0.98;;;24.50;59.20;;;;;;4950414;28;20114;-77
2023/08/28 11:05:42;;;;;;;1.10;0.90;;;24.20;60.30;;;;;;4949181;28;20506;-77
2023/08/28 11:08:11;;;;;;;3.60;1.10;;;23.70;61.30;;;;;;4969309;28;20059;-77
2023/08/28 11:10:44;;;;;;;3.33;1.08;;;23.70;61.30;;;;;;4945933;28;20050;-77
2023/08/28 11:13:21;;;;;;;4.88;1.33;;;23.60;60.50;;;;;;4963405;28;20055;-77
2023/08/28 11:15:49;;;;;;;4.90;1.25;;;23.00;61.70;;;;;;4959860;28;20748;-77
2023/08/28 11:18:24;;;;;;;2.88;1.33;;;22.70;64.50;;;;;;4963894;28;20055;-77
2023/08/28 11:21:03;;;;;;;4.10;0.90;;;23.10;64.30;;;;;;4946618;28;20039;-76
2023/08/28 11:23:36;;;;;;;3.15;0.85;;;23.00;63.20;;;;;;4968654;28;20054;-77
2023/08/28 11:26:25;;;;;;;6.97;1.13;;;22.70;61.90;;;;;;4962579;28;20078;-77
2023/08/28 11:28:52;;;;;;;3.60;1.27;;;22.90;64.30;;;;;;4950312;28;20047;-77
2023/08/28 11:31:19;;;;;;;2.28;0.80;;;23.80;63.10;;;;;;4947642;28;20047;-77
2023/08/28 11:33:52;;;;;;;5.50;1.10;;;24.80;60.40;;;;;;4971441;28;20058;-77
2023/08/28 11:36:18;;;;;;;2.83;1.00;;;25.10;57.10;;;;;;4942748;28;20047;-77
2023/08/28 11:38:47;;;;;;;2.60;0.75;;;25.50;56.20;;;;;;4968574;28;20054;-77
2023/08/28 11:41:14;;;;;;;2.50;0.80;;;25.40;56.30;;;;;;4960477;28;20050;-77
2023/08/28 11:43:43;;;;;;;3.20;0.73;;;25.40;58.00;;;;;;4930938;28;20055;-77
2023/08/28 11:46:12;;;;;;;5.68;0.75;;;26.00;56.60;;;;;;4962731;28;20050;-77
2023/08/28 11:48:42;;;;;;;2.55;0.73;;;26.10;51.20;;;;;;4953586;28;20057;-77
2023/08/28 11:51:26;;;;;;;1.58;0.57;;;25.60;55.60;;;;;;4960884;28;20050;-77
2023/08/28 11:53:53;;;;;;;1.60;0.73;;;25.90;52.80;;;;;;4947616;28;20078;-77
2023/08/28 11:56:20;;;;;;;1.63;0.75;;;26.30;55.90;;;;;;4963423;28;20059;-77
2023/08/28 11:58:46;;;;;;;1.73;0.80;;;27.00;53.10;;;;;;4956172;28;20098;-77
2023/08/28 12:01:15;;;;;;;3.40;0.93;;;26.70;52.50;;;;;;4948630;28;20161;-78
2023/08/28 12:03:43;;;;;;;2.53;0.73;;;26.30;53.00;;;;;;4942943;28;20066;-77
2023/08/28 12:06:12;;;;;;;2.67;0.75;;;25.90;56.50;;;;;;4940102;28;20142;-77
2023/08/28 12:08:41;;;;;;;2.92;0.93;;;26.90;54.50;;;;;;4966966;28;20058;-78
2023/08/28 12:11:10;;;;;;;1.48;0.57;;;27.90;50.70;;;;;;4954832;28;20067;-77
2023/08/28 12:13:38;;;;;;;3.28;0.80;;;28.40;54.20;;;;;;4947363;28;20058;-78
2023/08/28 12:16:17;;;;;;;2.95;1.10;;;28.50;47.00;;;;;;4956408;28;20055;-77
2023/08/28 12:18:52;;;;;;;1.38;0.63;;;27.00;50.60;;;;;;4958475;28;20061;-77
2023/08/28 12:21:36;;;;;;;3.75;0.60;;;27.30;50.80;;;;;;4946893;28;20087;-78
2023/08/28 12:26:43;;;;;;;13.82;1.35;;;28.20;50.70;;;;;;4999005;23;20054;-76
2023/08/28 12:29:10;;;;;;;3.05;0.90;;;27.70;51.50;;;;;;5003674;28;20053;-76
2023/08/28 12:31:37;;;;;;;3.40;0.80;;;28.90;50.40;;;;;;4982395;28;20499;-74
2023/08/28 12:34:10;;;;;;;3.13;0.85;;;29.10;44.60;;;;;;4985450;28;20049;-75
2023/08/28 12:36:39;;;;;;;1.05;0.70;;;27.70;47.00;;;;;;4987489;28;20037;-84
2023/08/28 12:39:09;;;;;;;3.22;0.75;;;26.40;49.00;;;;;;4983095;28;20147;-74
2023/08/28 12:41:47;;;;;;;6.20;0.73;;;25.50;51.70;;;;;;4982586;28;20063;-74
2023/08/28 12:44:14;;;;;;;13.27;1.42;;;25.30;53.00;;;;;;4984921;28;20515;-76
2023/08/28 12:46:41;;;;;;;2.42;0.90;;;25.10;52.40;;;;;;4998305;28;20511;-75
2023/08/28 12:49:08;;;;;;;3.45;0.65;;;25.00;52.60;;;;;;4986927;28;20175;-76
2023/08/28 12:51:35;;;;;;;30.00;3.95;;;24.10;52.90;;;;;;5004170;28;20141;-70
2023/08/28 12:54:03;;;;;;;2.22;0.90;;;23.70;56.30;;;;;;5012757;28;20062;-71
2023/08/28 12:56:30;;;;;;;1.77;0.73;;;23.40;55.20;;;;;;4984775;28;20145;-70
2023/08/28 12:58:59;;;;;;;7.43;0.95;;;23.30;56.90;;;;;;5003439;28;20052;-70